Time,TemperatureF,DewpointF,PressureIn,WindDirection,WindDirectionDegrees,WindSpeedMPH,WindSpeedGustMPH,Humidity,HourlyPrecipIn,Conditions,Clouds,dailyrainin,SoftwareType,DateUTC
2013-05-06 00:05:00,45.2,40.7,30.21,SW,221,0.0,0.0,84,0.00,,,0.00,Wunderground v.1.15,2013-05-06 04:05:00,
2013-05-06 00:10:00,45.1,40.6,30.21,SW,221,0.0,0.0,84,0.00,,,0.00,Wunderground v.1.15,2013-05-06 04:10:00,
2013-05-06 00:15:00,44.9,40.4,30.21,SW,221,0.0,0.0,84,0.00,,,0.00,Wunderground v.1.15,2013-05-06 04:15:00,
2013-05-06 00:20:00,44.9,40.4,30.21,SW,221,0.0,0.0,84,0.00,,,0.00,Wunderground v.1.15,2013-05-06 04:20:00,
2013-05-06 00:25:00,45.1,40.9,30.21,SW,221,0.0,0.0,85,0.00,,,0.00,Wunderground v.1.15,2013-05-06 04:25:00,
2013-05-06 00:35:00,44.9,40.7,30.20,SW,221,0.0,0.0,85,0.00,,,0.00,Wunderground v.1.15,2013-05-06 04:35:00,
2013-05-06 00:45:00,44.6,40.4,30.20,SW,221,0.0,0.0,85,0.00,,,0.00,Wunderground v.1.15,2013-05-06 04:45:00,
2013-05-06 00:55:00,44.2,40.3,30.20,SW,221,0.0,0.0,86,0.00,,,0.00,Wunderground v.1.15,2013-05-06 04:55:00,
2013-05-06 01:05:00,44.2,40.3,30.20,SW,221,0.0,0.0,86,0.00,,,0.00,Wunderground v.1.15,2013-05-06 05:05:00,
2013-05-06 01:15:00,43.9,40.3,30.20,SW,221,0.0,0.0,87,0.00,,,0.00,Wunderground v.1.15,2013-05-06 05:15:00,
2013-05-06 01:25:00,43.6,40.0,30.20,SW,221,0.0,0.0,87,0.00,,,0.00,Wunderground v.1.15,2013-05-06 05:25:00,
2013-05-06 01:35:00,43.2,39.9,30.20,SW,221,0.0,0.0,88,0.00,,,0.00,Wunderground v.1.15,2013-05-06 05:35:00,
2013-05-06 01:45:00,43.1,40.1,30.20,SW,221,0.0,0.0,89,0.00,,,0.00,Wunderground v.1.15,2013-05-06 05:45:00,
2013-05-06 01:55:00,42.8,40.1,30.19,SW,221,0.0,0.0,90,0.00,,,0.00,Wunderground v.1.15,2013-05-06 05:55:00,
2013-05-06 02:06:00,42.6,39.9,30.19,SW,221,0.0,0.0,90,0.00,,,0.00,Wunderground v.1.15,2013-05-06 06:06:00,
2013-05-06 02:15:00,42.2,39.5,30.19,SW,221,0.0,0.0,90,0.00,,,0.00,Wunderground v.1.15,2013-05-06 06:15:00,
2013-05-06 02:25:00,42.2,39.8,30.18,SW,221,0.0,0.0,91,0.00,,,0.00,Wunderground v.1.15,2013-05-06 06:25:00,
2013-05-06 02:35:00,42.2,39.8,30.19,SW,221,0.0,0.0,91,0.00,,,0.00,Wunderground v.1.15,2013-05-06 06:35:00,
2013-05-06 02:45:00,42.8,40.6,30.19,SW,221,0.0,0.0,92,0.00,,,0.00,Wunderground v.1.15,2013-05-06 06:45:00,
2013-05-06 02:55:00,43.1,40.9,30.18,SW,221,0.0,0.0,92,0.00,,,0.00,Wunderground v.1.15,2013-05-06 06:55:00,
2013-05-06 03:05:00,43.5,41.3,30.18,SW,221,0.0,0.0,92,0.00,,,0.00,Wunderground v.1.15,2013-05-06 07:05:00,
2013-05-06 03:15:00,44.3,42.4,30.18,SW,221,0.0,0.0,93,0.00,,,0.00,Wunderground v.1.15,2013-05-06 07:15:00,
2013-05-06 03:25:00,45.1,42.9,30.18,SW,221,0.0,0.0,92,0.00,,,0.00,Wunderground v.1.15,2013-05-06 07:25:00,
2013-05-06 03:35:00,45.5,43.3,30.18,SW,221,0.0,0.0,92,0.00,,,0.00,Wunderground v.1.15,2013-05-06 07:35:00,
2013-05-06 03:45:00,46.1,43.9,30.18,SW,221,0.0,0.0,92,0.00,,,0.00,Wunderground v.1.15,2013-05-06 07:45:00,
2013-05-06 03:55:00,46.5,44.0,30.18,SW,221,0.0,0.0,91,0.00,,,0.00,Wunderground v.1.15,2013-05-06 07:55:00,
2013-05-06 04:05:00,46.5,43.7,30.18,SW,221,0.0,0.0,90,0.00,,,0.00,Wunderground v.1.15,2013-05-06 08:05:00,
2013-05-06 04:15:00,47.0,44.2,30.18,SW,221,0.0,0.0,90,0.00,,,0.00,Wunderground v.1.15,2013-05-06 08:15:00,
2013-05-06 04:25:00,47.1,44.3,30.19,SW,221,0.0,0.0,90,0.00,,,0.00,Wunderground v.1.15,2013-05-06 08:25:00,
2013-05-06 04:35:00,47.3,44.2,30.19,SW,221,0.0,0.0,89,0.00,,,0.00,Wunderground v.1.15,2013-05-06 08:35:00,
2013-05-06 04:45:00,47.4,44.3,30.19,SW,221,0.0,0.0,89,0.00,,,0.00,Wunderground v.1.15,2013-05-06 08:45:00,
2013-05-06 04:55:00,47.7,44.3,30.18,SW,221,0.0,0.0,88,0.00,,,0.00,Wunderground v.1.15,2013-05-06 08:55:00,
2013-05-06 05:05:00,47.7,44.3,30.19,SW,221,0.0,0.0,88,0.00,,,0.00,Wunderground v.1.15,2013-05-06 09:05:00,
2013-05-06 05:15:00,47.9,44.5,30.19,SW,221,0.0,0.0,88,0.00,,,0.00,Wunderground v.1.15,2013-05-06 09:15:00,
2013-05-06 05:25:00,47.9,44.5,30.19,SW,221,0.0,0.0,88,0.00,,,0.00,Wunderground v.1.15,2013-05-06 09:25:00,
2013-05-06 05:35:00,48.0,44.6,30.19,SW,221,0.0,1.0,88,0.00,,,0.00,Wunderground v.1.15,2013-05-06 09:35:00,
2013-05-06 05:45:00,48.2,44.8,30.19,SW,221,0.0,1.0,88,0.00,,,0.00,Wunderground v.1.15,2013-05-06 09:45:00,
2013-05-06 05:55:00,48.2,44.8,30.20,SW,221,0.0,0.0,88,0.00,,,0.00,Wunderground v.1.15,2013-05-06 09:55:00,
2013-05-06 06:05:00,48.2,44.5,30.20,NNW,345,1.0,2.0,87,0.00,,,0.00,Wunderground v.1.15,2013-05-06 10:05:00,
2013-05-06 06:15:00,48.2,44.5,30.20,North,5,1.0,3.0,87,0.00,,,0.00,Wunderground v.1.15,2013-05-06 10:15:00,
2013-05-06 06:25:00,48.0,44.3,30.20,NNE,30,1.0,1.0,87,0.00,,,0.00,Wunderground v.1.15,2013-05-06 10:25:00,
2013-05-06 06:40:00,48.2,44.5,30.20,NNE,19,1.0,1.0,87,0.00,,,0.00,Wunderground v.1.15,2013-05-06 10:40:00,
2013-05-06 06:45:00,48.5,44.8,30.20,NNE,19,0.0,1.0,87,0.00,,,0.00,Wunderground v.1.15,2013-05-06 10:45:00,
2013-05-06 06:55:00,48.5,44.8,30.21,NNE,19,0.0,0.0,87,0.00,,,0.00,Wunderground v.1.15,2013-05-06 10:55:00,
2013-05-06 07:05:00,48.8,44.8,30.21,NNE,30,1.0,1.0,86,0.00,,,0.00,Wunderground v.1.15,2013-05-06 11:05:00,
2013-05-06 07:15:00,49.1,45.1,30.21,NNE,30,1.0,1.0,86,0.00,,,0.00,Wunderground v.1.15,2013-05-06 11:15:00,
2013-05-06 07:20:00,49.4,45.4,30.22,NNE,30,0.0,0.0,86,0.00,,,0.00,Wunderground v.1.15,2013-05-06 11:20:00,
2013-05-06 07:25:00,49.4,45.1,30.22,NNE,30,1.0,1.0,85,0.00,,,0.00,Wunderground v.1.15,2013-05-06 11:25:00,
2013-05-06 07:35:00,49.5,44.9,30.22,NNE,28,1.0,1.0,84,0.00,,,0.00,Wunderground v.1.15,2013-05-06 11:35:00,
2013-05-06 07:45:00,49.6,45.0,30.22,NNE,30,1.0,2.0,84,0.00,,,0.00,Wunderground v.1.15,2013-05-06 11:45:00,
2013-05-06 07:55:00,50.1,45.5,30.22,NE,44,1.0,3.0,84,0.00,,,0.00,Wunderground v.1.15,2013-05-06 11:55:00,
2013-05-06 08:05:00,50.1,45.1,30.23,NE,52,1.0,3.0,83,0.00,,,0.00,Wunderground v.1.15,2013-05-06 12:05:00,
2013-05-06 08:15:00,50.4,45.4,30.23,NNW,330,1.0,1.0,83,0.00,,,0.00,Wunderground v.1.15,2013-05-06 12:15:00,
2013-05-06 08:25:00,50.5,45.5,30.22,East,101,2.0,6.0,83,0.00,,,0.00,Wunderground v.1.15,2013-05-06 12:25:00,
2013-05-06 08:35:00,50.7,45.4,30.23,NNE,24,1.0,4.0,82,0.00,,,0.00,Wunderground v.1.15,2013-05-06 12:35:00,
2013-05-06 08:45:00,51.0,45.7,30.23,NE,56,1.0,3.0,82,0.00,,,0.00,Wunderground v.1.15,2013-05-06 12:45:00,
2013-05-06 08:55:00,51.4,45.8,30.23,East,95,1.0,1.0,81,0.00,,,0.00,Wunderground v.1.15,2013-05-06 12:55:00,
2013-05-06 09:05:00,51.7,46.1,30.23,ESE,112,1.0,1.0,81,0.00,,,0.00,Wunderground v.1.15,2013-05-06 13:05:00,
2013-05-06 09:15:00,52.0,45.7,30.23,SSE,155,1.0,2.0,79,0.00,,,0.00,Wunderground v.1.15,2013-05-06 13:15:00,
2013-05-06 09:25:00,52.5,46.2,30.23,SW,219,1.0,1.0,79,0.00,,,0.00,Wunderground v.1.15,2013-05-06 13:25:00,
2013-05-06 09:35:00,53.1,46.8,30.23,NE,42,1.0,1.0,79,0.00,,,0.00,Wunderground v.1.15,2013-05-06 13:35:00,
2013-05-06 09:45:00,52.9,46.2,30.23,NE,49,1.0,1.0,78,0.00,,,0.00,Wunderground v.1.15,2013-05-06 13:45:00,
2013-05-06 09:55:00,53.5,46.1,30.23,ENE,65,1.0,1.0,76,0.00,,,0.00,Wunderground v.1.15,2013-05-06 13:55:00,
2013-05-06 10:05:00,54.1,46.7,30.23,ESE,111,1.0,2.0,76,0.00,,,0.00,Wunderground v.1.15,2013-05-06 14:05:00,
2013-05-06 10:15:00,54.8,47.4,30.23,SSW,192,1.0,1.0,76,0.00,,,0.00,Wunderground v.1.15,2013-05-06 14:15:00,
2013-05-06 10:25:00,55.9,47.0,30.23,NE,36,1.0,2.0,72,0.00,,,0.00,Wunderground v.1.15,2013-05-06 14:25:00,
2013-05-06 10:35:00,57.5,47.0,30.23,East,96,1.0,2.0,68,0.00,,,0.00,Wunderground v.1.15,2013-05-06 14:35:00,
2013-05-06 10:45:00,57.2,46.7,30.23,ESE,105,1.0,2.0,68,0.00,,,0.00,Wunderground v.1.15,2013-05-06 14:45:00,
2013-05-06 10:55:00,59.2,48.2,30.23,SE,132,1.0,2.0,67,0.00,,,0.00,Wunderground v.1.15,2013-05-06 14:55:00,
2013-05-06 11:10:00,57.8,46.5,30.23,NE,35,1.0,1.0,66,0.00,,,0.00,Wunderground v.1.15,2013-05-06 15:10:00,
2013-05-06 11:15:00,58.0,47.9,30.23,South,172,1.0,2.0,69,0.00,,,0.00,Wunderground v.1.15,2013-05-06 15:15:00,
2013-05-06 11:25:00,58.9,48.0,30.22,SSE,167,1.0,1.0,67,0.00,,,0.00,Wunderground v.1.15,2013-05-06 15:25:00,
2013-05-06 11:35:00,59.2,47.8,30.22,NE,52,2.0,2.0,66,0.00,,,0.00,Wunderground v.1.15,2013-05-06 15:35:00,
2013-05-06 11:45:00,59.9,48.5,30.22,ESE,119,1.0,3.0,66,0.00,,,0.00,Wunderground v.1.15,2013-05-06 15:45:00,
2013-05-06 11:55:00,61.2,48.1,30.21,ESE,103,1.0,2.0,62,0.00,,,0.00,Wunderground v.1.15,2013-05-06 15:55:00,
2013-05-06 12:05:00,62.1,49.4,30.21,ESE,123,1.0,3.0,63,0.00,,,0.00,Wunderground v.1.15,2013-05-06 16:05:00,
2013-05-06 12:15:00,61.5,49.2,30.21,SE,146,2.0,2.0,64,0.00,,,0.00,Wunderground v.1.15,2013-05-06 16:15:00,
2013-05-06 12:25:00,63.2,50.0,30.20,ENE,73,1.0,2.0,62,0.00,,,0.00,Wunderground v.1.15,2013-05-06 16:25:00,
2013-05-06 12:35:00,62.7,48.6,30.19,ESE,103,2.0,2.0,60,0.00,,,0.00,Wunderground v.1.15,2013-05-06 16:35:00,
2013-05-06 12:45:00,64.0,50.7,30.19,SE,132,2.0,3.0,62,0.00,,,0.00,Wunderground v.1.15,2013-05-06 16:45:00,
2013-05-06 12:55:00,65.0,49.9,30.18,East,100,1.0,2.0,58,0.00,,,0.00,Wunderground v.1.15,2013-05-06 16:55:00,
2013-05-06 13:05:00,65.8,50.6,30.18,SE,140,2.0,2.0,58,0.00,,,0.00,Wunderground v.1.15,2013-05-06 17:05:00,
2013-05-06 13:15:00,66.4,49.7,30.18,SW,221,2.0,2.0,55,0.00,,,0.00,Wunderground v.1.15,2013-05-06 17:15:00,
2013-05-06 13:25:00,66.6,51.4,30.18,South,191,2.0,2.0,58,0.00,,,0.00,Wunderground v.1.15,2013-05-06 17:25:00,
2013-05-06 13:35:00,66.4,51.2,30.17,South,170,2.0,2.0,58,0.00,,,0.00,Wunderground v.1.15,2013-05-06 17:35:00,
2013-05-06 13:45:00,67.4,50.7,30.17,East,95,2.0,4.0,55,0.00,,,0.00,Wunderground v.1.15,2013-05-06 17:45:00,
2013-05-06 13:55:00,67.6,50.4,30.17,WSW,242,2.0,3.0,54,0.00,,,0.00,Wunderground v.1.15,2013-05-06 17:55:00,
2013-05-06 14:05:00,67.9,51.1,30.17,SSE,154,3.0,3.0,55,0.00,,,0.00,Wunderground v.1.15,2013-05-06 18:05:00,
2013-05-06 14:15:00,68.3,52.0,30.17,SSE,156,2.0,2.0,56,0.00,,,0.00,Wunderground v.1.15,2013-05-06 18:15:00,
2013-05-06 14:25:00,67.8,51.0,30.16,WSW,243,2.0,2.0,55,0.00,,,0.00,Wunderground v.1.15,2013-05-06 18:25:00,
2013-05-06 14:35:00,67.9,51.1,30.15,NE,50,1.0,2.0,55,0.00,,,0.00,Wunderground v.1.15,2013-05-06 18:35:00,
2013-05-06 14:45:00,67.6,51.3,30.15,SSE,167,3.0,3.0,56,0.00,,,0.00,Wunderground v.1.15,2013-05-06 18:45:00,
2013-05-06 14:55:00,67.6,51.3,30.14,East,97,2.0,2.0,56,0.00,,,0.00,Wunderground v.1.15,2013-05-06 18:55:00,
2013-05-06 15:10:00,67.4,50.7,30.14,SSW,213,2.0,3.0,55,0.00,,,0.00,Wunderground v.1.15,2013-05-06 19:10:00,
2013-05-06 15:15:00,67.3,51.1,30.14,SW,227,2.0,3.0,56,0.00,,,0.00,Wunderground v.1.15,2013-05-06 19:15:00,
2013-05-06 15:25:00,68.1,51.3,30.13,SE,133,2.0,2.0,55,0.00,,,0.00,Wunderground v.1.15,2013-05-06 19:25:00,
2013-05-06 15:35:00,67.6,51.8,30.13,SW,218,2.0,3.0,57,0.00,,,0.00,Wunderground v.1.15,2013-05-06 19:35:00,
2013-05-06 15:45:00,67.6,51.8,30.13,South,172,2.0,2.0,57,0.00,,,0.00,Wunderground v.1.15,2013-05-06 19:45:00,
2013-05-06 15:55:00,67.6,51.8,30.12,SSW,212,2.0,3.0,57,0.00,,,0.00,Wunderground v.1.15,2013-05-06 19:55:00,
2013-05-06 16:05:00,67.4,53.0,30.12,ESE,105,2.0,2.0,60,0.00,,,0.00,Wunderground v.1.15,2013-05-06 20:05:00,
2013-05-06 16:15:00,66.3,52.9,30.12,SSE,168,2.0,4.0,62,0.00,,,0.00,Wunderground v.1.15,2013-05-06 20:15:00,
2013-05-06 16:25:00,66.6,53.2,30.12,SW,225,2.0,4.0,62,0.00,,,0.00,Wunderground v.1.15,2013-05-06 20:25:00,
2013-05-06 16:35:00,66.4,52.5,30.11,SW,223,2.0,3.0,61,0.00,,,0.00,Wunderground v.1.15,2013-05-06 20:35:00,
2013-05-06 16:45:00,66.4,53.0,30.11,SSE,161,3.0,3.0,62,0.00,,,0.00,Wunderground v.1.15,2013-05-06 20:45:00,
2013-05-06 16:55:00,66.3,52.9,30.11,SW,229,2.0,3.0,62,0.00,,,0.00,Wunderground v.1.15,2013-05-06 20:55:00,
2013-05-06 17:05:00,66.1,52.7,30.11,WSW,238,2.0,5.0,62,0.00,,,0.00,Wunderground v.1.15,2013-05-06 21:05:00,
2013-05-06 17:15:00,66.4,53.8,30.11,SSE,164,2.0,3.0,64,0.00,,,0.00,Wunderground v.1.15,2013-05-06 21:15:00,
2013-05-06 17:25:00,66.0,54.3,30.11,ESE,111,2.0,4.0,66,0.00,,,0.00,Wunderground v.1.15,2013-05-06 21:25:00,
2013-05-06 17:35:00,65.3,53.6,30.11,SSE,166,2.0,2.0,66,0.00,,,0.00,Wunderground v.1.15,2013-05-06 21:35:00,
2013-05-06 17:45:00,65.3,53.2,30.11,SSW,198,2.0,7.0,65,0.00,,,0.00,Wunderground v.1.15,2013-05-06 21:45:00,
2013-05-06 17:55:00,65.0,52.9,30.11,SE,139,2.0,3.0,65,0.00,,,0.00,Wunderground v.1.15,2013-05-06 21:55:00,
2013-05-06 18:05:00,64.5,52.9,30.11,SW,222,2.0,4.0,66,0.00,,,0.00,Wunderground v.1.15,2013-05-06 22:05:00,
2013-05-06 18:15:00,64.5,52.9,30.11,SW,217,1.0,2.0,66,0.00,,,0.00,Wunderground v.1.15,2013-05-06 22:15:00,
2013-05-06 18:25:00,64.2,53.0,30.11,South,180,2.0,2.0,67,0.00,,,0.00,Wunderground v.1.15,2013-05-06 22:25:00,
2013-05-06 18:35:00,63.7,52.9,30.11,SSW,212,1.0,2.0,68,0.00,,,0.00,Wunderground v.1.15,2013-05-06 22:35:00,
2013-05-06 18:45:00,63.2,52.5,30.11,SW,227,1.0,1.0,68,0.00,,,0.00,Wunderground v.1.15,2013-05-06 22:45:00,
2013-05-06 18:55:00,63.2,52.5,30.11,SSE,163,0.0,1.0,68,0.00,,,0.00,Wunderground v.1.15,2013-05-06 22:55:00,
2013-05-06 19:05:00,62.9,51.8,30.11,SW,232,1.0,1.0,67,0.00,,,0.00,Wunderground v.1.15,2013-05-06 23:05:00,
2013-05-06 19:15:00,62.4,51.7,30.11,SW,231,1.0,1.0,68,0.00,,,0.00,Wunderground v.1.15,2013-05-06 23:15:00,
2013-05-06 19:25:00,62.3,51.6,30.11,WSW,243,1.0,2.0,68,0.00,,,0.00,Wunderground v.1.15,2013-05-06 23:25:00,
2013-05-06 19:35:00,61.6,50.9,30.12,WSW,242,1.0,2.0,68,0.00,,,0.00,Wunderground v.1.15,2013-05-06 23:35:00,
2013-05-06 19:45:00,61.2,50.9,30.12,WSW,241,1.0,1.0,69,0.00,,,0.00,Wunderground v.1.15,2013-05-06 23:45:00,
2013-05-06 19:55:00,60.7,50.5,30.12,WSW,246,0.0,0.0,69,0.00,,,0.00,Wunderground v.1.15,2013-05-06 23:55:00,
2013-05-06 20:05:00,59.8,50.4,30.12,WSW,246,0.0,0.0,71,0.00,,,0.00,Wunderground v.1.15,2013-05-07 00:05:00,
2013-05-06 20:15:00,59.3,50.6,30.12,WSW,246,0.0,0.0,73,0.00,,,0.00,Wunderground v.1.15,2013-05-07 00:15:00,
2013-05-06 20:25:00,58.7,50.8,30.12,WSW,246,0.0,0.0,75,0.00,,,0.00,Wunderground v.1.15,2013-05-07 00:25:00,
2013-05-06 20:35:00,58.0,50.5,30.13,WSW,246,0.0,0.0,76,0.00,,,0.00,Wunderground v.1.15,2013-05-07 00:35:00,
2013-05-06 20:45:00,57.5,50.7,30.13,WSW,246,0.0,0.0,78,0.00,,,0.00,Wunderground v.1.15,2013-05-07 00:45:00,
2013-05-06 20:55:00,57.2,50.7,30.13,WSW,246,0.0,0.0,79,0.00,,,0.00,Wunderground v.1.15,2013-05-07 00:55:00,
2013-05-06 21:05:00,57.0,50.2,30.14,WSW,246,0.0,0.0,78,0.00,,,0.00,Wunderground v.1.15,2013-05-07 01:05:00,
2013-05-06 21:15:00,56.3,49.9,30.14,WSW,246,0.0,0.0,79,0.00,,,0.00,Wunderground v.1.15,2013-05-07 01:15:00,
2013-05-06 21:25:00,55.7,50.0,30.14,WSW,246,0.0,0.0,81,0.00,,,0.00,Wunderground v.1.15,2013-05-07 01:25:00,
2013-05-06 21:35:00,55.3,49.9,30.15,WSW,246,0.0,0.0,82,0.00,,,0.00,Wunderground v.1.15,2013-05-07 01:35:00,
2013-05-06 21:45:00,54.7,49.6,30.15,WSW,246,0.0,0.0,83,0.00,,,0.00,Wunderground v.1.15,2013-05-07 01:45:00,
2013-05-06 21:55:00,54.5,49.4,30.15,WSW,246,0.0,0.0,83,0.00,,,0.00,Wunderground v.1.15,2013-05-07 01:55:00,
2013-05-06 22:05:00,54.1,49.4,30.15,WSW,246,0.0,0.0,84,0.00,,,0.00,Wunderground v.1.15,2013-05-07 02:05:00,
2013-05-06 22:15:00,53.6,49.2,30.15,WSW,246,0.0,0.0,85,0.00,,,0.00,Wunderground v.1.15,2013-05-07 02:15:00,
2013-05-06 22:25:00,53.2,49.1,30.15,WSW,246,0.0,0.0,86,0.00,,,0.00,Wunderground v.1.15,2013-05-07 02:25:00,
2013-05-06 22:35:00,52.8,49.0,30.14,WSW,246,0.0,0.0,87,0.00,,,0.00,Wunderground v.1.15,2013-05-07 02:35:00,
2013-05-06 22:45:00,52.3,48.9,30.14,WSW,246,0.0,0.0,88,0.00,,,0.00,Wunderground v.1.15,2013-05-07 02:45:00,
2013-05-06 22:55:00,52.0,48.9,30.14,WSW,246,0.0,0.0,89,0.00,,,0.00,Wunderground v.1.15,2013-05-07 02:55:00,
2013-05-06 23:05:00,51.7,48.6,30.14,WSW,246,0.0,0.0,89,0.00,,,0.00,Wunderground v.1.15,2013-05-07 03:05:00,
2013-05-06 23:15:00,51.4,48.6,30.14,WSW,246,0.0,0.0,90,0.00,,,0.00,Wunderground v.1.15,2013-05-07 03:15:00,
2013-05-06 23:25:00,51.3,48.5,30.13,WSW,246,0.0,0.0,90,0.00,,,0.00,Wunderground v.1.15,2013-05-07 03:25:00,
2013-05-06 23:35:00,51.0,48.5,30.13,WSW,246,0.0,0.0,91,0.00,,,0.00,Wunderground v.1.15,2013-05-07 03:35:00,
2013-05-06 23:45:00,50.8,48.3,30.13,WSW,246,0.0,0.0,91,0.00,,,0.00,Wunderground v.1.15,2013-05-07 03:45:00,
2013-05-06 23:55:00,50.4,47.9,30.13,WSW,246,0.0,0.0,91,0.00,,,0.00,Wunderground v.1.15,2013-05-07 03:55:00,